createdAt,value
2019-02-04T00:02:25.221Z,898.93
2019-02-04T00:04:54.965Z,897.72
2019-02-04T00:07:24.591Z,899.87
2019-02-04T00:09:54.328Z,900.98
2019-02-04T00:12:25.066Z,901.75
2019-02-04T00:14:54.845Z,898.70
2019-02-04T00:17:24.651Z,902.07
2019-02-04T00:19:54.641Z,905.25
2019-02-04T00:22:24.382Z,909.47
2019-02-04T00:24:54.071Z,906.12
2019-02-04T00:27:23.714Z,907.30
2019-02-04T00:29:53.361Z,910.60
2019-02-04T00:32:24.180Z,905.95
2019-02-04T00:34:54.892Z,905.10
2019-02-04T00:37:24.650Z,906.98
2019-02-04T00:39:56.384Z,904.63
2019-02-04T00:42:26.209Z,901.80
2019-02-04T00:44:56.109Z,900.30
2019-02-04T00:47:26.140Z,897.02
2019-02-04T00:49:56.813Z,895.92
2019-02-04T00:52:26.537Z,895.48
2019-02-04T00:54:56.413Z,894.67
2019-02-04T00:57:26.114Z,891.40
2019-02-04T00:59:55.793Z,899.25
2019-02-04T01:02:25.627Z,888.12
2019-02-04T01:04:56.277Z,889.35
2019-02-04T01:07:25.963Z,890.70
2019-02-04T01:09:55.793Z,891.75
2019-02-04T01:12:25.459Z,884.90
2019-02-04T01:14:55.643Z,886.60
2019-02-04T01:17:25.470Z,884.65
2019-02-04T01:19:55.394Z,885.83
2019-02-04T01:22:26.206Z,888.12
2019-02-04T01:24:56.811Z,888.78
2019-02-04T01:27:26.711Z,887.97
2019-02-04T01:29:56.483Z,886.43
2019-02-04T01:32:26.305Z,883.38
2019-02-04T01:34:56.133Z,882.60
2019-02-04T01:37:25.879Z,877.47
2019-02-04T01:40:00.224Z,878.27
2019-02-04T01:42:30.880Z,879.37
2019-02-04T01:45:00.801Z,882.87
2019-02-04T01:47:30.567Z,877.30
2019-02-04T01:50:01.260Z,879.80
2019-02-04T01:52:31.028Z,880.70
2019-02-04T01:55:00.716Z,873.47
2019-02-04T01:57:30.410Z,875.85
2019-02-04T02:00:00.321Z,880.65
2019-02-04T02:02:30.353Z,873.05
2019-02-04T02:05:00.098Z,872.93
2019-02-04T02:07:32.319Z,869.95
2019-02-04T02:10:02.288Z,863.87
2019-02-04T02:12:32.122Z,867.40
2019-02-04T02:15:01.903Z,861.50
2019-02-04T02:17:31.924Z,859.33
2019-02-04T02:20:01.643Z,862.00
2019-02-04T02:22:31.545Z,859.07
2019-02-04T02:25:01.277Z,859.95
2019-02-04T02:27:30.956Z,857.92
2019-02-04T02:30:01.032Z,856.83
2019-02-04T02:32:30.779Z,860.33
2019-02-04T02:35:00.879Z,859.77
2019-02-04T02:37:31.559Z,862.03
2019-02-04T02:40:01.463Z,860.13
2019-02-04T02:42:31.137Z,852.37
2019-02-04T02:45:00.897Z,859.95
2019-02-04T02:47:38.213Z,855.35
2019-02-04T02:50:02.307Z,856.78
2019-02-04T02:52:34.048Z,866.80
2019-02-04T02:55:04.528Z,860.85
2019-02-04T02:57:34.286Z,851.00
2019-02-04T03:00:07.506Z,862.75
2019-02-04T03:02:37.376Z,854.25
2019-02-04T03:05:10.479Z,853.65
2019-02-04T03:07:40.892Z,853.60
2019-02-04T03:10:14.025Z,851.22
2019-02-04T03:12:43.811Z,849.58
2019-02-04T03:15:13.885Z,849.68
2019-02-04T03:17:51.377Z,848.02
2019-02-04T03:20:15.707Z,846.40
2019-02-04T03:22:45.486Z,846.97
2019-02-04T03:25:16.217Z,847.55
2019-02-04T03:27:46.003Z,849.87
2019-02-04T03:30:30.732Z,854.35
2019-02-04T03:33:01.510Z,851.85
2019-02-04T03:35:31.517Z,846.55
2019-02-04T03:38:01.644Z,853.40
2019-02-04T03:40:32.416Z,853.08
2019-02-04T03:43:02.221Z,848.63
2019-02-04T03:45:32.045Z,855.93
2019-02-04T03:48:05.404Z,843.48
2019-02-04T03:50:33.664Z,841.50
2019-02-04T03:53:03.471Z,845.47
2019-02-04T03:55:33.242Z,845.42
2019-02-04T03:58:04.208Z,845.57
2019-02-04T04:00:35.695Z,842.73
2019-02-04T04:03:05.651Z,841.90
2019-02-04T04:05:35.468Z,843.65
2019-02-04T04:08:06.055Z,840.20
2019-02-04T04:10:35.897Z,850.70
2019-02-04T04:13:05.588Z,846.90
2019-02-04T04:15:35.428Z,846.27
2019-02-04T04:18:15.364Z,845.88
2019-02-04T04:20:37.023Z,851.00
2019-02-04T04:23:06.797Z,846.30
2019-02-04T04:25:36.615Z,846.08
2019-02-04T04:28:06.385Z,840.23
2019-02-04T04:30:36.170Z,842.68
2019-02-04T04:33:06.011Z,847.52
2019-02-04T04:35:36.948Z,842.50
2019-02-04T04:38:06.803Z,844.20
2019-02-04T04:40:36.624Z,849.20
2019-02-04T04:43:06.429Z,843.20
2019-02-04T04:45:36.373Z,844.58
2019-02-04T04:48:06.215Z,841.08
2019-02-04T04:50:36.085Z,838.17
2019-02-04T04:53:05.876Z,826.92
2019-02-04T04:55:35.704Z,819.55
2019-02-04T04:58:05.704Z,830.63
2019-02-04T05:00:35.385Z,821.23
2019-02-04T05:03:05.215Z,827.13
2019-02-04T05:05:35.078Z,836.05
2019-02-04T05:08:05.097Z,832.73
2019-02-04T05:10:34.921Z,827.30
2019-02-04T05:13:05.046Z,828.77
2019-02-04T05:15:34.730Z,827.13
2019-02-04T05:18:04.558Z,821.00
2019-02-04T05:20:34.324Z,825.58
2019-02-04T05:23:04.083Z,821.83
2019-02-04T05:25:35.017Z,828.20
2019-02-04T05:28:04.685Z,831.98
2019-02-04T05:30:34.567Z,833.05
2019-02-04T05:33:04.614Z,844.10
2019-02-04T05:35:34.423Z,845.33
2019-02-04T05:38:04.441Z,844.37
2019-02-04T05:40:34.254Z,837.67
2019-02-04T05:43:04.166Z,842.98
2019-02-04T05:45:34.797Z,834.62
2019-02-04T05:48:04.611Z,837.73
2019-02-04T05:50:34.385Z,826.62
2019-02-04T05:53:04.602Z,826.37
2019-02-04T05:55:34.422Z,831.53
2019-02-04T05:58:05.130Z,842.62
2019-02-04T06:00:37.350Z,839.67
2019-02-04T06:03:07.140Z,842.65
2019-02-04T06:05:36.902Z,834.80
2019-02-04T06:08:06.746Z,831.87
2019-02-04T06:10:37.567Z,837.63
2019-02-04T06:13:08.319Z,846.50
2019-02-04T06:15:38.128Z,833.25
2019-02-04T06:18:07.960Z,841.30
2019-02-04T06:20:38.302Z,835.22
2019-02-04T06:23:07.971Z,829.95
2019-02-04T06:25:37.713Z,832.10
2019-02-04T06:28:08.366Z,834.70
2019-02-04T06:30:38.219Z,842.17
2019-02-04T06:33:08.929Z,843.48
2019-02-04T06:35:38.737Z,841.70
2019-02-04T06:38:08.506Z,840.62
2019-02-04T06:40:38.292Z,844.85
2019-02-04T06:43:07.965Z,846.70
2019-02-04T06:45:37.972Z,844.50
2019-02-04T06:48:08.145Z,836.82
2019-02-04T06:50:37.970Z,843.00
2019-02-04T06:53:07.690Z,846.42
2019-02-04T06:55:37.375Z,847.48
2019-02-04T06:58:07.141Z,848.25
2019-02-04T07:00:36.966Z,851.20
2019-02-04T07:03:06.833Z,854.65
2019-02-04T07:05:43.464Z,848.20
2019-02-04T07:08:08.252Z,851.55
2019-02-04T07:10:38.065Z,849.75
2019-02-04T07:13:08.132Z,858.70
2019-02-04T07:15:39.166Z,859.47
2019-02-04T07:18:09.418Z,855.48
2019-02-04T07:20:39.202Z,860.83
2019-02-04T07:23:08.890Z,861.65
2019-02-04T07:25:38.816Z,855.87
2019-02-04T07:28:08.571Z,853.95
2019-02-04T07:30:38.640Z,855.52
2019-02-04T07:33:08.480Z,856.55
2019-02-04T07:35:38.498Z,857.00
2019-02-04T07:38:08.240Z,848.80
2019-02-04T07:40:38.074Z,853.27
2019-02-04T07:43:07.828Z,853.92
2019-02-04T07:45:37.695Z,853.67
2019-02-04T07:48:07.507Z,860.85
2019-02-04T07:50:37.273Z,860.70
2019-02-04T07:53:07.083Z,863.57
2019-02-04T07:55:36.950Z,854.55
2019-02-04T07:58:07.375Z,842.55
2019-02-04T08:00:37.100Z,853.42
2019-02-04T08:03:06.832Z,844.95
2019-02-04T08:05:36.565Z,843.65
2019-02-04T08:08:06.515Z,841.95
2019-02-04T08:10:36.159Z,838.23
2019-02-04T08:13:06.081Z,843.88
2019-02-04T08:15:37.968Z,851.20
2019-02-04T08:18:07.930Z,851.98
2019-02-04T08:20:37.730Z,852.50
2019-02-04T08:23:07.568Z,860.17
2019-02-04T08:25:37.674Z,867.88
2019-02-04T08:28:07.426Z,861.23
2019-02-04T08:30:38.589Z,858.15
2019-02-04T08:33:08.535Z,854.52
2019-02-04T08:35:38.306Z,863.42
2019-02-04T08:38:08.112Z,851.50
2019-02-04T08:40:38.145Z,857.02
2019-02-04T08:43:07.999Z,863.33
2019-02-04T08:45:37.802Z,844.63
2019-02-04T08:48:07.463Z,848.50
2019-02-04T08:50:37.349Z,851.47
2019-02-04T08:53:07.148Z,849.42
2019-02-04T08:55:37.183Z,850.95
2019-02-04T08:58:07.324Z,855.08
2019-02-04T09:00:37.394Z,864.48
2019-02-04T09:03:07.199Z,875.68
2019-02-04T09:05:36.915Z,873.50
2019-02-04T09:08:06.653Z,860.65
2019-02-04T09:10:36.671Z,863.83
2019-02-04T09:13:06.449Z,855.33
2019-02-04T09:15:36.214Z,862.97
2019-02-04T09:18:06.011Z,859.58
2019-02-04T09:20:35.754Z,851.13
2019-02-04T09:23:06.615Z,875.62
2019-02-04T09:25:36.772Z,874.80
2019-02-04T09:28:06.655Z,887.77
2019-02-04T09:30:36.421Z,883.62
2019-02-04T09:33:06.231Z,889.12
2019-02-04T09:35:36.221Z,877.48
2019-02-04T09:38:06.018Z,875.60
2019-02-04T09:40:40.731Z,873.05
2019-02-04T09:43:10.454Z,870.08
2019-02-04T09:45:40.683Z,846.10
2019-02-04T09:48:13.425Z,852.35
2019-02-04T09:50:45.779Z,851.13
2019-02-04T09:53:16.628Z,862.92
2019-02-04T09:55:46.365Z,855.03
2019-02-04T09:58:16.008Z,844.03
2019-02-04T10:00:46.206Z,865.53
2019-02-04T10:03:18.920Z,876.82
2019-02-04T10:05:48.946Z,855.77
2019-02-04T10:08:18.713Z,857.10
2019-02-04T10:10:48.393Z,861.58
2019-02-04T10:13:18.170Z,848.65
2019-02-04T10:15:47.938Z,863.33
2019-02-04T10:18:17.696Z,843.45
2019-02-04T10:20:47.489Z,841.10
2019-02-04T10:23:17.377Z,850.65
2019-02-04T10:25:47.183Z,848.23
2019-02-04T10:28:17.018Z,838.03
2019-02-04T10:30:46.895Z,847.23
2019-02-04T10:33:16.824Z,833.68
2019-02-04T10:35:46.627Z,826.70
2019-02-04T10:38:16.812Z,827.88
2019-02-04T10:40:46.712Z,812.63
2019-02-04T10:43:16.732Z,810.85
2019-02-04T10:45:46.398Z,832.00
2019-02-04T10:48:16.181Z,823.65
2019-02-04T10:50:47.005Z,830.95
2019-02-04T10:53:17.293Z,832.13
2019-02-04T10:55:47.072Z,828.22
2019-02-04T10:58:16.920Z,812.08
2019-02-04T11:00:47.039Z,806.75
2019-02-04T11:03:16.702Z,809.67
2019-02-04T11:05:48.139Z,791.38
2019-02-04T11:08:17.926Z,790.88
2019-02-04T11:10:47.775Z,782.97
2019-02-04T11:13:18.031Z,801.65
2019-02-04T11:15:48.285Z,798.02
2019-02-04T11:18:19.086Z,797.63
2019-02-04T11:20:57.565Z,788.85
2019-02-04T11:23:20.463Z,725.95
2019-02-04T11:25:50.265Z,774.65
2019-02-04T11:28:20.327Z,787.05
2019-02-04T11:30:55.585Z,762.65
2019-02-04T11:33:26.793Z,750.67
2019-02-04T11:35:57.520Z,726.75
2019-02-04T11:38:27.250Z,744.02
2019-02-04T11:40:57.370Z,733.02
2019-02-04T11:43:27.202Z,763.52
2019-02-04T11:45:56.972Z,745.40
2019-02-04T11:48:26.659Z,772.57
2019-02-04T11:50:56.475Z,774.88
2019-02-04T11:53:33.168Z,783.23
2019-02-04T11:55:57.660Z,802.28
2019-02-04T11:58:28.478Z,827.88
2019-02-04T12:00:58.959Z,818.75
2019-02-04T12:03:28.762Z,828.88
2019-02-04T12:05:58.454Z,831.63
2019-02-04T12:08:28.573Z,836.05
2019-02-04T12:11:01.415Z,849.70
2019-02-04T12:13:31.147Z,862.65
2019-02-04T12:16:00.882Z,846.57
2019-02-04T12:18:30.636Z,841.23
2019-02-04T12:21:00.531Z,847.12
2019-02-04T12:23:30.535Z,858.75
2019-02-04T12:26:00.198Z,881.32
2019-02-04T12:28:29.950Z,864.98
2019-02-04T12:30:59.740Z,889.90
2019-02-04T12:33:29.571Z,868.45
2019-02-04T12:36:02.035Z,873.23
2019-02-04T12:38:31.014Z,878.40
2019-02-04T12:41:00.882Z,885.00
2019-02-04T12:43:30.597Z,904.33
2019-02-04T12:46:00.246Z,909.60
2019-02-04T12:48:30.003Z,894.77
2019-02-04T12:50:59.730Z,882.98
2019-02-04T12:53:29.428Z,869.28
2019-02-04T12:55:59.191Z,873.90
2019-02-04T12:58:29.164Z,869.88
2019-02-04T13:01:00.880Z,863.80
2019-02-04T13:03:31.030Z,870.85
2019-02-04T13:06:00.845Z,864.40
2019-02-04T13:08:30.544Z,863.45
2019-02-04T13:11:00.283Z,869.40
2019-02-04T13:13:29.985Z,871.87
2019-02-04T13:16:00.797Z,872.93
2019-02-04T13:18:31.600Z,872.05
2019-02-04T13:21:01.398Z,870.27
2019-02-04T13:23:31.183Z,882.70
2019-02-04T13:26:01.842Z,869.28
2019-02-04T13:28:31.643Z,872.95
2019-02-04T13:31:01.789Z,870.52
2019-02-04T13:33:37.099Z,863.67
2019-02-04T13:36:06.822Z,867.60
2019-02-04T13:38:36.427Z,868.70
2019-02-04T13:41:08.042Z,865.38
2019-02-04T13:43:37.784Z,871.50
2019-02-04T13:46:07.519Z,879.97
2019-02-04T13:48:37.205Z,872.40
2019-02-04T13:51:07.865Z,869.10
2019-02-04T13:53:37.630Z,869.67
2019-02-04T13:56:07.363Z,868.35
2019-02-04T13:58:37.067Z,871.60
2019-02-04T14:01:06.758Z,874.35
2019-02-04T14:03:36.516Z,864.55
2019-02-04T14:06:08.902Z,870.85
2019-02-04T14:08:38.751Z,865.27
2019-02-04T14:11:08.901Z,871.08
2019-02-04T14:13:38.701Z,874.32
2019-02-04T14:16:08.440Z,866.62
2019-02-04T14:18:38.222Z,863.67
2019-02-04T14:21:08.783Z,887.52
2019-02-04T14:23:38.723Z,886.58
2019-02-04T14:26:09.530Z,893.00
2019-02-04T14:28:40.276Z,872.75
2019-02-04T14:31:10.091Z,879.35
2019-02-04T14:33:39.761Z,867.13
2019-02-04T14:36:10.350Z,863.63
2019-02-04T14:38:40.182Z,857.80
2019-02-04T14:41:10.008Z,858.45
2019-02-04T14:43:42.705Z,855.18
2019-02-04T14:46:21.455Z,847.05
2019-02-04T14:49:11.103Z,842.13
2019-02-04T14:51:43.828Z,842.13
2019-02-04T14:54:19.313Z,855.78
2019-02-04T14:56:58.294Z,853.12
2019-02-04T14:59:29.624Z,832.40
2019-02-04T15:02:08.978Z,839.08
2019-02-04T15:04:56.642Z,848.23
2019-02-04T15:07:44.051Z,836.58
2019-02-04T15:10:21.338Z,830.80
2019-02-04T15:13:23.910Z,831.08
2019-02-04T15:16:02.426Z,836.73
2019-02-04T15:18:57.313Z,834.27
2019-02-04T15:21:38.927Z,835.90
2019-02-04T15:24:14.572Z,837.85
2019-02-04T15:27:21.679Z,839.85
2019-02-04T15:29:54.782Z,834.77
2019-02-04T15:32:30.011Z,834.67
2019-02-04T15:35:04.520Z,830.65
2019-02-04T15:38:03.616Z,828.12
2019-02-04T15:40:54.039Z,829.33
2019-02-04T15:43:42.843Z,830.52
2019-02-04T15:46:18.471Z,838.75
2019-02-04T15:49:08.591Z,836.05
2019-02-04T15:51:40.281Z,834.37
2019-02-04T15:54:10.076Z,832.83
2019-02-04T15:56:39.777Z,830.27
2019-02-04T15:59:09.624Z,830.20
2019-02-04T16:01:40.430Z,822.90
2019-02-04T16:04:30.303Z,827.28
2019-02-04T16:07:01.135Z,826.20
2019-02-04T16:09:31.149Z,817.80
2019-02-04T16:12:01.161Z,817.20
2019-02-04T16:14:31.310Z,814.15
2019-02-04T16:17:01.230Z,821.52
2019-02-04T16:19:31.116Z,824.42
2019-02-04T16:22:00.717Z,819.20
2019-02-04T16:24:30.559Z,825.65
2019-02-04T16:27:01.177Z,822.43
2019-02-04T16:29:33.149Z,812.17
2019-02-04T16:32:02.968Z,814.23
2019-02-04T16:34:32.632Z,815.10
2019-02-04T16:37:02.492Z,811.82
2019-02-04T16:39:32.228Z,812.05
2019-02-04T16:42:02.160Z,811.22
2019-02-04T16:44:31.981Z,815.77
2019-02-04T16:47:01.623Z,810.45
2019-02-04T16:49:31.338Z,811.88
2019-02-04T16:52:02.768Z,816.85
2019-02-04T16:54:32.854Z,814.63
2019-02-04T16:57:04.038Z,813.70
2019-02-04T16:59:33.776Z,808.05
2019-02-04T17:02:04.397Z,815.08
2019-02-04T17:04:34.140Z,808.40
2019-02-04T17:07:05.725Z,805.03
2019-02-04T17:09:35.496Z,811.03
2019-02-04T17:12:05.317Z,815.42
2019-02-04T17:14:34.942Z,809.42
2019-02-04T17:17:04.876Z,809.37
2019-02-04T17:19:34.825Z,814.08
2019-02-04T17:22:05.909Z,808.85
2019-02-04T17:24:36.056Z,811.43
2019-02-04T17:27:05.893Z,815.05
2019-02-04T17:29:35.645Z,807.65
2019-02-04T17:32:05.710Z,806.95
2019-02-04T17:34:35.406Z,812.57
2019-02-04T17:37:05.322Z,808.58
2019-02-04T17:39:35.406Z,799.60
2019-02-04T17:42:05.557Z,805.25
2019-02-04T17:44:35.291Z,801.92
2019-02-04T17:47:05.091Z,805.23
2019-02-04T17:49:34.780Z,810.82
2019-02-04T17:52:04.646Z,803.75
2019-02-04T17:54:34.294Z,797.48
2019-02-04T17:57:06.091Z,801.85
2019-02-04T17:59:36.101Z,799.17
2019-02-04T18:02:06.257Z,806.93
2019-02-04T18:04:36.954Z,799.12
2019-02-04T18:07:06.995Z,808.85
2019-02-04T18:09:36.764Z,802.77
2019-02-04T18:12:07.564Z,799.25
2019-02-04T18:14:37.362Z,797.90
2019-02-04T18:17:07.124Z,793.25
2019-02-04T18:19:36.809Z,800.70
2019-02-04T18:22:17.337Z,794.00
2019-02-04T18:24:47.174Z,793.30
2019-02-04T18:27:17.051Z,797.85
2019-02-04T18:29:46.781Z,786.42
2019-02-04T18:32:16.829Z,786.90
2019-02-04T18:34:46.593Z,778.90
2019-02-04T18:37:16.489Z,796.45
2019-02-04T18:39:47.366Z,788.08
2019-02-04T18:42:17.371Z,774.45
2019-02-04T18:44:47.547Z,777.42
2019-02-04T18:47:17.537Z,774.90
2019-02-04T18:49:47.285Z,774.70
2019-02-04T18:52:17.027Z,769.83
2019-02-04T18:54:47.166Z,784.52
2019-02-04T18:57:17.128Z,771.15
2019-02-04T18:59:47.806Z,777.17
2019-02-04T19:02:17.577Z,780.83
2019-02-04T19:04:49.175Z,773.95
2019-02-04T19:07:19.797Z,764.13
2019-02-04T19:09:49.662Z,764.40
2019-02-04T19:12:19.604Z,780.13
2019-02-04T19:14:49.363Z,769.60
2019-02-04T19:17:19.293Z,771.80
2019-02-04T19:19:48.979Z,769.95
2019-02-04T19:22:18.836Z,758.02
2019-02-04T19:24:48.681Z,756.05
2019-02-04T19:27:18.351Z,759.00
2019-02-04T19:29:48.123Z,762.52
2019-02-04T19:32:17.899Z,763.58
2019-02-04T19:34:47.603Z,769.85
2019-02-04T19:37:17.357Z,765.08
2019-02-04T19:39:47.424Z,759.73
2019-02-04T19:42:17.873Z,755.67
2019-02-04T19:44:47.653Z,751.67
2019-02-04T19:47:17.521Z,754.05
2019-02-04T19:49:47.339Z,760.45
2019-02-04T19:52:17.127Z,754.87
2019-02-04T19:54:47.162Z,761.53
2019-02-04T19:57:16.866Z,773.92
2019-02-04T19:59:46.551Z,763.92
2019-02-04T20:02:16.339Z,767.50
2019-02-04T20:04:46.079Z,763.45
2019-02-04T20:07:15.873Z,763.05
2019-02-04T20:09:45.803Z,756.87
2019-02-04T20:12:15.760Z,752.97
2019-02-04T20:14:45.533Z,768.40
2019-02-04T20:17:15.161Z,771.25
2019-02-04T20:19:44.934Z,761.45
2019-02-04T20:22:14.872Z,764.20
2019-02-04T20:24:45.565Z,763.87
2019-02-04T20:27:15.347Z,755.20
2019-02-04T20:29:45.053Z,752.65
2019-02-04T20:32:14.935Z,754.08
2019-02-04T20:34:44.762Z,748.90
2019-02-04T20:37:14.960Z,757.08
2019-02-04T20:39:44.972Z,751.48
2019-02-04T20:42:14.830Z,748.02
2019-02-04T20:44:44.587Z,747.73
2019-02-04T20:47:14.479Z,746.22
2019-02-04T20:49:44.175Z,739.03
2019-02-04T20:52:14.303Z,736.00
2019-02-04T20:54:45.255Z,737.95
2019-02-04T20:57:15.264Z,736.88
2019-02-04T20:59:44.912Z,740.30
2019-02-04T21:02:14.770Z,736.58
2019-02-04T21:04:44.629Z,731.53
2019-02-04T21:07:14.527Z,737.45
2019-02-04T21:09:44.313Z,738.15
2019-02-04T21:12:14.099Z,738.87
2019-02-04T21:14:43.756Z,746.57
2019-02-04T21:17:14.304Z,745.92
2019-02-04T21:19:44.275Z,748.02
2019-02-04T21:22:14.948Z,752.00
2019-02-04T21:24:56.096Z,750.75
2019-02-04T21:27:16.065Z,748.00
2019-02-04T21:29:48.087Z,750.65
2019-02-04T21:32:17.891Z,744.75
2019-02-04T21:34:47.917Z,747.80
2019-02-04T21:37:17.535Z,749.88
2019-02-04T21:39:47.206Z,740.07
2019-02-04T21:42:17.058Z,740.10
2019-02-04T21:44:46.731Z,738.40
2019-02-04T21:47:16.401Z,742.40
2019-02-04T21:49:46.141Z,736.90
2019-02-04T21:52:15.851Z,739.75
2019-02-04T21:54:45.550Z,740.77
2019-02-04T21:57:15.222Z,743.17
2019-02-04T21:59:44.852Z,741.92
2019-02-04T22:02:14.626Z,741.50
2019-02-04T22:04:44.266Z,736.58
2019-02-04T22:07:14.014Z,731.00
2019-02-04T22:09:43.785Z,726.85
2019-02-04T22:12:13.851Z,725.02
2019-02-04T22:14:43.594Z,726.48
2019-02-04T22:17:13.739Z,719.17
2019-02-04T22:19:43.497Z,722.37
2019-02-04T22:22:13.254Z,724.50
2019-02-04T22:24:43.007Z,722.37
2019-02-04T22:27:13.585Z,720.30
2019-02-04T22:29:43.405Z,722.75
2019-02-04T22:32:13.103Z,725.92
2019-02-04T22:34:45.591Z,729.92
2019-02-04T22:37:14.490Z,717.33
2019-02-04T22:39:44.348Z,722.73
2019-02-04T22:42:14.078Z,728.83
2019-02-04T22:44:43.842Z,729.38
2019-02-04T22:47:13.865Z,722.08
2019-02-04T22:49:43.535Z,724.95
2019-02-04T22:52:13.275Z,720.33
2019-02-04T22:54:42.959Z,727.02
2019-02-04T22:57:12.709Z,726.50
2019-02-04T22:59:42.472Z,725.20
2019-02-04T23:02:12.884Z,725.70
2019-02-04T23:04:42.730Z,723.10
2019-02-04T23:07:12.553Z,723.13
2019-02-04T23:09:42.475Z,742.80
2019-02-04T23:12:12.501Z,731.25
2019-02-04T23:14:42.203Z,730.15
2019-02-04T23:17:12.096Z,727.83
2019-02-04T23:19:41.918Z,722.85
2019-02-04T23:22:11.728Z,719.52
2019-02-04T23:24:41.421Z,718.40
2019-02-04T23:27:11.116Z,722.50
2019-02-04T23:29:41.160Z,714.37
2019-02-04T23:32:10.772Z,715.62
2019-02-04T23:34:40.534Z,720.55
2019-02-04T23:37:10.454Z,726.40
2019-02-04T23:39:40.200Z,736.95
2019-02-04T23:42:10.022Z,729.12
2019-02-04T23:44:39.710Z,732.10
2019-02-04T23:47:09.608Z,725.45
2019-02-04T23:49:39.439Z,728.85
2019-02-04T23:52:09.189Z,736.62
2019-02-04T23:54:38.889Z,731.65
2019-02-04T23:57:09.185Z,725.70
2019-02-04T23:59:39.928Z,726.90
